sensor_id;sensor_type;location;lat;lon;timestamp;pressure;altitude;pressure_sealevel;temperature;humidity
59825;BME280;45703;50.898;6.054;2022-08-11T00:01:26;100722.00;;;21.07;46.26
59825;BME280;45703;50.898;6.054;2022-08-11T00:03:58;100713.03;;;21.01;46.44
59825;BME280;45703;50.898;6.054;2022-08-11T00:06:43;100720.13;;;20.92;46.92
59825;BME280;45703;50.898;6.054;2022-08-11T00:09:21;100716.34;;;20.88;46.86
59825;BME280;45703;50.898;6.054;2022-08-11T00:11:49;100718.53;;;20.81;46.64
59825;BME280;45703;50.898;6.054;2022-08-11T00:14:25;100718.00;;;20.74;46.85
59825;BME280;45703;50.898;6.054;2022-08-11T00:16:57;100712.59;;;20.69;47.33
59825;BME280;45703;50.898;6.054;2022-08-11T00:19:28;100715.31;;;20.69;47.38
59825;BME280;45703;50.898;6.054;2022-08-11T00:21:54;100719.13;;;20.68;47.35
59825;BME280;45703;50.898;6.054;2022-08-11T00:24:21;100715.31;;;20.69;47.17
59825;BME280;45703;50.898;6.054;2022-08-11T00:26:50;100716.94;;;20.70;47.76
59825;BME280;45703;50.898;6.054;2022-08-11T00:29:16;100716.94;;;20.70;47.59
59825;BME280;45703;50.898;6.054;2022-08-11T00:31:48;100714.47;;;20.69;47.96
59825;BME280;45703;50.898;6.054;2022-08-11T00:34:18;100702.81;;;20.63;47.96
59825;BME280;45703;50.898;6.054;2022-08-11T00:39:30;100706.34;;;20.64;48.26
59825;BME280;45703;50.898;6.054;2022-08-11T00:44:45;100704.75;;;20.53;47.84
59825;BME280;45703;50.898;6.054;2022-08-11T01:01:22;100712.16;;;20.18;49.13
59825;BME280;45703;50.898;6.054;2022-08-11T01:46:26;100709.81;;;19.30;51.20
59825;BME280;45703;50.898;6.054;2022-08-11T01:49:13;100702.50;;;19.25;51.44
59825;BME280;45703;50.898;6.054;2022-08-11T01:54:27;100701.06;;;19.13;51.70
59825;BME280;45703;50.898;6.054;2022-08-11T01:57:07;100706.81;;;19.21;51.56
59825;BME280;45703;50.898;6.054;2022-08-11T01:59:42;100703.28;;;19.16;51.54
59825;BME280;45703;50.898;6.054;2022-08-11T02:02:26;100713.03;;;19.17;51.67
59825;BME280;45703;50.898;6.054;2022-08-11T02:11:23;100716.19;;;19.04;52.06
59825;BME280;45703;50.898;6.054;2022-08-11T02:14:16;100723.22;;;19.00;52.21
59825;BME280;45703;50.898;6.054;2022-08-11T02:22:12;100724.25;;;18.89;52.51
59825;BME280;45703;50.898;6.054;2022-08-11T02:25:03;100707.44;;;18.82;52.69
59825;BME280;45703;50.898;6.054;2022-08-11T02:27:41;100712.31;;;18.80;52.68
59825;BME280;45703;50.898;6.054;2022-08-11T02:30:13;100722.59;;;18.83;52.48
59825;BME280;45703;50.898;6.054;2022-08-11T02:32:57;100716.63;;;18.81;52.82
59825;BME280;45703;50.898;6.054;2022-08-11T02:36:05;100713.91;;;18.76;53.11
59825;BME280;45703;50.898;6.054;2022-08-11T02:46:50;100710.00;;;18.57;53.40
59825;BME280;45703;50.898;6.054;2022-08-11T02:49:41;100711.59;;;18.53;53.54
59825;BME280;45703;50.898;6.054;2022-08-11T02:57:54;100702.84;;;18.36;53.94
59825;BME280;45703;50.898;6.054;2022-08-11T03:00:22;100708.78;;;18.33;54.10
59825;BME280;45703;50.898;6.054;2022-08-11T03:03:13;100710.91;;;18.26;54.22
59825;BME280;45703;50.898;6.054;2022-08-11T03:13:42;100705.53;;;18.00;54.63
59825;BME280;45703;50.898;6.054;2022-08-11T03:25:07;100717.53;;;17.82;55.05
59825;BME280;45703;50.898;6.054;2022-08-11T03:27:59;100706.13;;;17.75;55.50
59825;BME280;45703;50.898;6.054;2022-08-11T03:41:42;100706.47;;;17.57;56.11
59825;BME280;45703;50.898;6.054;2022-08-11T03:53:08;100709.94;;;17.53;56.43
59825;BME280;45703;50.898;6.054;2022-08-11T04:12:04;100714.97;;;17.44;57.02
59825;BME280;45703;50.898;6.054;2022-08-11T04:20:24;100704.69;;;17.42;56.96
59825;BME280;45703;50.898;6.054;2022-08-11T04:23:23;100703.56;;;17.38;57.58
59825;BME280;45703;50.898;6.054;2022-08-11T04:32:16;100701.25;;;17.46;57.58
59825;BME280;45703;50.898;6.054;2022-08-11T04:34:36;100704.19;;;17.44;57.15
59825;BME280;45703;50.898;6.054;2022-08-11T04:37:31;100699.84;;;17.43;57.62
59825;BME280;45703;50.898;6.054;2022-08-11T04:46:11;100698.16;;;17.38;57.82
59825;BME280;45703;50.898;6.054;2022-08-11T04:52:26;100708.97;;;17.38;58.42
59825;BME280;45703;50.898;6.054;2022-08-11T04:55:28;100701.63;;;17.33;58.39
59825;BME280;45703;50.898;6.054;2022-08-11T04:58:23;100697.06;;;17.34;57.99
59825;BME280;45703;50.898;6.054;2022-08-11T05:01:35;100710.34;;;17.40;57.81
59825;BME280;45703;50.898;6.054;2022-08-11T05:12:51;100706.81;;;17.40;59.20
59825;BME280;45703;50.898;6.054;2022-08-11T05:15:45;100719.88;;;17.47;59.69
59825;BME280;45703;50.898;6.054;2022-08-11T05:18:32;100715.03;;;17.49;58.22
59825;BME280;45703;50.898;6.054;2022-08-11T05:21:20;100715.91;;;17.55;57.95
59825;BME280;45703;50.898;6.054;2022-08-11T05:24:15;100716.69;;;17.55;57.59
59825;BME280;45703;50.898;6.054;2022-08-11T05:27:02;100727.63;;;17.65;57.65
59825;BME280;45703;50.898;6.054;2022-08-11T05:32:42;100728.31;;;17.82;57.24
59825;BME280;45703;50.898;6.054;2022-08-11T05:35:54;100727.28;;;17.88;57.48
59825;BME280;45703;50.898;6.054;2022-08-11T05:38:22;100720.88;;;17.94;57.24
59825;BME280;45703;50.898;6.054;2022-08-11T05:41:10;100722.28;;;18.02;57.41
59825;BME280;45703;50.898;6.054;2022-08-11T05:43:57;100725.63;;;18.14;57.34
59825;BME280;45703;50.898;6.054;2022-08-11T05:46:43;100729.75;;;18.21;57.09
59825;BME280;45703;50.898;6.054;2022-08-11T05:49:32;100727.16;;;18.31;56.97
59825;BME280;45703;50.898;6.054;2022-08-11T05:52:19;100726.94;;;18.38;57.00
59825;BME280;45703;50.898;6.054;2022-08-11T05:55:04;100731.56;;;18.47;57.55
59825;BME280;45703;50.898;6.054;2022-08-11T05:57:54;100726.75;;;18.54;57.29
59825;BME280;45703;50.898;6.054;2022-08-11T06:00:21;100724.13;;;18.64;56.21
59825;BME280;45703;50.898;6.054;2022-08-11T06:02:51;100726.88;;;18.74;56.14
59825;BME280;45703;50.898;6.054;2022-08-11T06:05:19;100729.09;;;18.82;55.96
59825;BME280;45703;50.898;6.054;2022-08-11T06:07:47;100729.66;;;18.89;56.01
59825;BME280;45703;50.898;6.054;2022-08-11T06:10:12;100720.50;;;19.00;55.83
59825;BME280;45703;50.898;6.054;2022-08-11T06:12:40;100718.91;;;19.09;55.50
59825;BME280;45703;50.898;6.054;2022-08-11T06:15:09;100724.69;;;19.22;55.27
59825;BME280;45703;50.898;6.054;2022-08-11T06:17:44;100728.78;;;19.35;57.42
59825;BME280;45703;50.898;6.054;2022-08-11T06:20:12;100721.78;;;19.44;54.67
59825;BME280;45703;50.898;6.054;2022-08-11T06:22:41;100709.88;;;19.50;54.62
59825;BME280;45703;50.898;6.054;2022-08-11T06:25:09;100713.13;;;19.62;54.42
59825;BME280;45703;50.898;6.054;2022-08-11T06:27:36;100717.50;;;19.73;55.01
59825;BME280;45703;50.898;6.054;2022-08-11T06:30:03;100718.84;;;19.85;53.80
59825;BME280;45703;50.898;6.054;2022-08-11T06:32:39;100717.50;;;19.98;53.64
59825;BME280;45703;50.898;6.054;2022-08-11T06:35:25;100722.41;;;20.11;54.17
59825;BME280;45703;50.898;6.054;2022-08-11T06:40:52;100718.09;;;20.35;52.97
59825;BME280;45703;50.898;6.054;2022-08-11T06:46:14;100725.06;;;20.60;52.41
59825;BME280;45703;50.898;6.054;2022-08-11T06:48:42;100720.75;;;20.69;52.16
59825;BME280;45703;50.898;6.054;2022-08-11T06:51:09;100720.69;;;20.79;52.07
59825;BME280;45703;50.898;6.054;2022-08-11T06:53:46;100720.13;;;20.92;51.71
59825;BME280;45703;50.898;6.054;2022-08-11T06:56:14;100725.53;;;21.02;51.34
59825;BME280;45703;50.898;6.054;2022-08-11T06:59:04;100726.84;;;21.15;51.44
59825;BME280;45703;50.898;6.054;2022-08-11T07:07:36;100722.88;;;21.51;51.15
59825;BME280;45703;50.898;6.054;2022-08-11T07:10:42;100730.13;;;21.65;50.57
59825;BME280;45703;50.898;6.054;2022-08-11T07:13:32;100729.50;;;21.78;50.33
59825;BME280;45703;50.898;6.054;2022-08-11T07:16:24;100723.94;;;21.93;50.10
59825;BME280;45703;50.898;6.054;2022-08-11T07:18:55;100726.59;;;22.03;49.80
59825;BME280;45703;50.898;6.054;2022-08-11T07:21:42;100724.88;;;22.12;49.83
59825;BME280;45703;50.898;6.054;2022-08-11T07:24:32;100730.78;;;22.24;49.69
59825;BME280;45703;50.898;6.054;2022-08-11T07:27:19;100723.63;;;22.33;49.24
59825;BME280;45703;50.898;6.054;2022-08-11T07:30:08;100728.41;;;22.46;49.15
59825;BME280;45703;50.898;6.054;2022-08-11T07:32:43;100732.66;;;22.57;49.16
59825;BME280;45703;50.898;6.054;2022-08-11T07:35:12;100730.34;;;22.69;48.69
59825;BME280;45703;50.898;6.054;2022-08-11T07:37:42;100731.88;;;22.80;48.59
59825;BME280;45703;50.898;6.054;2022-08-11T07:40:09;100729.56;;;22.92;48.14
59825;BME280;45703;50.898;6.054;2022-08-11T07:42:36;100728.31;;;23.03;48.20
59825;BME280;45703;50.898;6.054;2022-08-11T07:45:04;100733.41;;;23.14;47.68
59825;BME280;45703;50.898;6.054;2022-08-11T07:47:49;100731.06;;;23.26;47.55
59825;BME280;45703;50.898;6.054;2022-08-11T07:50:35;100731.75;;;23.37;47.24
59825;BME280;45703;50.898;6.054;2022-08-11T07:53:23;100712.00;;;23.45;47.13
59825;BME280;45703;50.898;6.054;2022-08-11T07:55:49;100728.72;;;23.56;47.05
59825;BME280;45703;50.898;6.054;2022-08-11T07:58:15;100726.09;;;23.70;47.02
59825;BME280;45703;50.898;6.054;2022-08-11T08:01:00;100728.41;;;23.81;46.72
59825;BME280;45703;50.898;6.054;2022-08-11T08:03:44;100718.44;;;23.90;46.73
59825;BME280;45703;50.898;6.054;2022-08-11T08:06:31;100721.00;;;24.00;46.53
59825;BME280;45703;50.898;6.054;2022-08-11T08:09:18;100709.91;;;24.10;46.21
59825;BME280;45703;50.898;6.054;2022-08-11T08:12:03;100716.03;;;24.21;46.11
59825;BME280;45703;50.898;6.054;2022-08-11T08:14:49;100714.03;;;24.26;45.74
59825;BME280;45703;50.898;6.054;2022-08-11T08:17:34;100711.03;;;24.41;45.67
59825;BME280;45703;50.898;6.054;2022-08-11T08:20:24;100716.31;;;24.51;45.43
59825;BME280;45703;50.898;6.054;2022-08-11T08:22:52;100715.63;;;24.59;45.12
59825;BME280;45703;50.898;6.054;2022-08-11T08:25:24;100717.97;;;24.66;44.98
59825;BME280;45703;50.898;6.054;2022-08-11T08:27:51;100719.38;;;24.77;45.15
59825;BME280;45703;50.898;6.054;2022-08-11T08:30:17;100722.13;;;24.90;44.10
59825;BME280;45703;50.898;6.054;2022-08-11T08:33:02;100709.16;;;24.96;44.89
59825;BME280;45703;50.898;6.054;2022-08-11T08:35:29;100722.31;;;25.07;44.80
59825;BME280;45703;50.898;6.054;2022-08-11T08:37:56;100711.59;;;25.10;44.36
59825;BME280;45703;50.898;6.054;2022-08-11T08:40:22;100716.06;;;25.20;44.37
59825;BME280;45703;50.898;6.054;2022-08-11T08:42:52;100709.91;;;25.28;44.23
59825;BME280;45703;50.898;6.054;2022-08-11T08:45:20;100717.38;;;25.36;43.89
59825;BME280;45703;50.898;6.054;2022-08-11T08:47:57;100719.38;;;25.44;43.97
59825;BME280;45703;50.898;6.054;2022-08-11T08:50:25;100708.81;;;25.51;43.61
59825;BME280;45703;50.898;6.054;2022-08-11T08:53:12;100713.75;;;25.62;43.46
59825;BME280;45703;50.898;6.054;2022-08-11T08:55:39;100708.34;;;25.71;43.29
59825;BME280;45703;50.898;6.054;2022-08-11T08:58:06;100706.19;;;25.81;43.09
59825;BME280;45703;50.898;6.054;2022-08-11T09:00:40;100712.38;;;25.87;42.75
59825;BME280;45703;50.898;6.054;2022-08-11T09:03:06;100708.06;;;25.94;42.76
59825;BME280;45703;50.898;6.054;2022-08-11T09:05:32;100710.06;;;26.02;42.83
59825;BME280;45703;50.898;6.054;2022-08-11T09:07:58;100715.31;;;26.12;42.53
59825;BME280;45703;50.898;6.054;2022-08-11T09:10:24;100711.00;;;26.20;42.50
59825;BME280;45703;50.898;6.054;2022-08-11T09:12:51;100716.25;;;26.30;42.30
59825;BME280;45703;50.898;6.054;2022-08-11T09:15:17;100712.41;;;26.39;42.28
59825;BME280;45703;50.898;6.054;2022-08-11T09:17:52;100715.88;;;26.53;41.23
59825;BME280;45703;50.898;6.054;2022-08-11T09:20:30;100706.59;;;26.62;41.47
59825;BME280;45703;50.898;6.054;2022-08-11T09:23:02;100707.28;;;26.76;41.06
59825;BME280;45703;50.898;6.054;2022-08-11T09:25:47;100709.16;;;26.89;41.02
59825;BME280;45703;50.898;6.054;2022-08-11T09:28:32;100706.25;;;27.03;40.97
59825;BME280;45703;50.898;6.054;2022-08-11T09:31:01;100683.84;;;27.01;40.71
59825;BME280;45703;50.898;6.054;2022-08-11T09:33:28;100702.50;;;27.21;40.58
59825;BME280;45703;50.898;6.054;2022-08-11T09:35:54;100702.00;;;27.27;39.79
59825;BME280;45703;50.898;6.054;2022-08-11T09:38:25;100699.94;;;27.41;40.02
59825;BME280;45703;50.898;6.054;2022-08-11T09:41:10;100703.50;;;27.50;39.40
59825;BME280;45703;50.898;6.054;2022-08-11T09:43:39;100698.03;;;27.59;39.38
59825;BME280;45703;50.898;6.054;2022-08-11T09:46:27;100678.50;;;27.69;39.34
59825;BME280;45703;50.898;6.054;2022-08-11T09:48:54;100699.03;;;27.80;38.95
59825;BME280;45703;50.898;6.054;2022-08-11T09:51:23;100701.44;;;27.90;38.56
59825;BME280;45703;50.898;6.054;2022-08-11T09:53:49;100705.97;;;27.94;38.65
59825;BME280;45703;50.898;6.054;2022-08-11T09:56:17;100697.06;;;27.97;35.20
59825;BME280;45703;50.898;6.054;2022-08-11T09:59:03;100698.19;;;28.05;38.04
59825;BME280;45703;50.898;6.054;2022-08-11T10:01:47;100694.94;;;28.11;37.06
59825;BME280;45703;50.898;6.054;2022-08-11T10:04:15;100690.91;;;28.17;37.67
59825;BME280;45703;50.898;6.054;2022-08-11T10:06:43;100697.81;;;28.23;37.30
59825;BME280;45703;50.898;6.054;2022-08-11T10:09:51;100689.59;;;28.31;33.89
59825;BME280;45703;50.898;6.054;2022-08-11T10:12:26;100685.22;;;28.39;37.26
59825;BME280;45703;50.898;6.054;2022-08-11T10:14:53;100685.72;;;28.41;36.46
59825;BME280;45703;50.898;6.054;2022-08-11T10:17:42;100686.00;;;28.48;34.72
59825;BME280;45703;50.898;6.054;2022-08-11T10:20:33;100676.91;;;28.56;34.13
59825;BME280;45703;50.898;6.054;2022-08-11T10:23:00;100677.22;;;28.63;35.72
59825;BME280;45703;50.898;6.054;2022-08-11T10:25:45;100684.59;;;28.71;35.96
59825;BME280;45703;50.898;6.054;2022-08-11T10:28:30;100678.25;;;28.79;35.90
59825;BME280;45703;50.898;6.054;2022-08-11T10:30:57;100666.47;;;28.87;35.52
59825;BME280;45703;50.898;6.054;2022-08-11T10:33:43;100668.22;;;28.91;35.59
59825;BME280;45703;50.898;6.054;2022-08-11T10:36:33;100666.56;;;28.99;35.18
59825;BME280;45703;50.898;6.054;2022-08-11T10:39:01;100660.03;;;29.03;35.46
59825;BME280;45703;50.898;6.054;2022-08-11T10:41:28;100673.59;;;29.08;35.49
59825;BME280;45703;50.898;6.054;2022-08-11T10:44:13;100666.66;;;29.11;35.41
59825;BME280;45703;50.898;6.054;2022-08-11T10:46:38;100663.22;;;29.14;35.43
59825;BME280;45703;50.898;6.054;2022-08-11T10:49:24;100649.94;;;29.16;35.14
59825;BME280;45703;50.898;6.054;2022-08-11T10:51:52;100652.56;;;29.12;34.96
59825;BME280;45703;50.898;6.054;2022-08-11T10:54:39;100658.19;;;29.16;35.12
59825;BME280;45703;50.898;6.054;2022-08-11T10:57:23;100655.41;;;29.24;34.99
59825;BME280;45703;50.898;6.054;2022-08-11T11:00:09;100643.72;;;29.27;34.75
59825;BME280;45703;50.898;6.054;2022-08-11T11:02:40;100644.66;;;29.31;34.58
59825;BME280;45703;50.898;6.054;2022-08-11T11:05:28;100647.34;;;29.40;34.54
59825;BME280;45703;50.898;6.054;2022-08-11T11:08:08;100645.88;;;29.42;34.43
59825;BME280;45703;50.898;6.054;2022-08-11T11:10:55;100647.19;;;29.45;33.52
59825;BME280;45703;50.898;6.054;2022-08-11T11:13:22;100635.16;;;29.49;34.45
59825;BME280;45703;50.898;6.054;2022-08-11T11:16:08;100635.75;;;29.55;34.50
59825;BME280;45703;50.898;6.054;2022-08-11T11:19:10;100637.69;;;29.54;34.01
59825;BME280;45703;50.898;6.054;2022-08-11T11:21:38;100641.06;;;29.60;33.63
59825;BME280;45703;50.898;6.054;2022-08-11T11:24:35;100642.47;;;29.66;34.07
59825;BME280;45703;50.898;6.054;2022-08-11T11:27:26;100641.31;;;29.67;33.59
59825;BME280;45703;50.898;6.054;2022-08-11T11:30:06;100641.31;;;29.67;33.69
59825;BME280;45703;50.898;6.054;2022-08-11T11:38:28;100631.25;;;29.70;33.36
59825;BME280;45703;50.898;6.054;2022-08-11T11:40:54;100639.28;;;29.75;33.58
59825;BME280;45703;50.898;6.054;2022-08-11T11:43:38;100624.06;;;29.78;33.16
59825;BME280;45703;50.898;6.054;2022-08-11T11:46:04;100623.47;;;29.84;33.38
59825;BME280;45703;50.898;6.054;2022-08-11T11:48:31;100640.75;;;29.93;31.72
59825;BME280;45703;50.898;6.054;2022-08-11T11:50:57;100624.50;;;30.00;33.17
59825;BME280;45703;50.898;6.054;2022-08-11T11:53:23;100620.72;;;30.05;33.17
59825;BME280;45703;50.898;6.054;2022-08-11T11:55:49;100612.13;;;30.06;33.10
59825;BME280;45703;50.898;6.054;2022-08-11T11:58:16;100611.91;;;30.11;33.15
59825;BME280;45703;50.898;6.054;2022-08-11T12:01:00;100606.06;;;30.13;32.93
59825;BME280;45703;50.898;6.054;2022-08-11T12:03:46;100608.59;;;30.18;32.81
59825;BME280;45703;50.898;6.054;2022-08-11T12:06:14;100622.38;;;30.18;27.63
59825;BME280;45703;50.898;6.054;2022-08-11T12:08:42;100603.19;;;30.21;32.34
59825;BME280;45703;50.898;6.054;2022-08-11T12:11:10;100613.75;;;30.19;31.57
59825;BME280;45703;50.898;6.054;2022-08-11T12:13:57;100604.78;;;30.22;29.83
59825;BME280;45703;50.898;6.054;2022-08-11T12:16:24;100599.97;;;30.19;31.63
59825;BME280;45703;50.898;6.054;2022-08-11T12:18:55;100591.25;;;30.17;32.17
59825;BME280;45703;50.898;6.054;2022-08-11T12:21:23;100590.69;;;30.24;32.33
59825;BME280;45703;50.898;6.054;2022-08-11T12:23:49;100586.88;;;30.28;32.27
59825;BME280;45703;50.898;6.054;2022-08-11T12:26:35;100572.88;;;30.33;31.94
59825;BME280;45703;50.898;6.054;2022-08-11T12:29:20;100581.06;;;30.42;29.14
59825;BME280;45703;50.898;6.054;2022-08-11T12:31:52;100583.34;;;30.52;32.21
59825;BME280;45703;50.898;6.054;2022-08-11T12:34:18;100582.00;;;30.58;32.08
59825;BME280;45703;50.898;6.054;2022-08-11T12:36:58;100570.28;;;30.61;31.87
59825;BME280;45703;50.898;6.054;2022-08-11T12:39:36;100568.47;;;30.65;32.28
59825;BME280;45703;50.898;6.054;2022-08-11T12:42:21;100573.59;;;30.66;31.47
59825;BME280;45703;50.898;6.054;2022-08-11T12:45:09;100565.00;;;30.68;31.24
59825;BME280;45703;50.898;6.054;2022-08-11T12:48:04;100554.53;;;30.73;31.24
59825;BME280;45703;50.898;6.054;2022-08-11T12:50:58;100552.69;;;30.77;31.13
59825;BME280;45703;50.898;6.054;2022-08-11T12:53:51;100544.88;;;30.79;31.02
59825;BME280;45703;50.898;6.054;2022-08-11T12:56:18;100549.13;;;30.77;30.89
59825;BME280;45703;50.898;6.054;2022-08-11T12:59:04;100538.19;;;30.80;30.99
59825;BME280;45703;50.898;6.054;2022-08-11T13:01:49;100544.63;;;30.84;31.15
59825;BME280;45703;50.898;6.054;2022-08-11T13:04:33;100555.06;;;30.91;30.91
59825;BME280;45703;50.898;6.054;2022-08-11T13:07:17;100542.66;;;30.97;31.22
59825;BME280;45703;50.898;6.054;2022-08-11T13:09:44;100536.09;;;31.01;31.31
59825;BME280;45703;50.898;6.054;2022-08-11T13:12:11;100530.34;;;31.06;31.19
59825;BME280;45703;50.898;6.054;2022-08-11T13:14:55;100530.69;;;31.17;30.93
59825;BME280;45703;50.898;6.054;2022-08-11T13:17:21;100531.66;;;31.24;31.14
59825;BME280;45703;50.898;6.054;2022-08-11T13:19:47;100530.63;;;31.28;30.51
59825;BME280;45703;50.898;6.054;2022-08-11T13:22:19;100528.06;;;31.35;30.20
59825;BME280;45703;50.898;6.054;2022-08-11T13:24:47;100523.44;;;31.39;30.82
59825;BME280;45703;50.898;6.054;2022-08-11T13:27:15;100522.84;;;31.46;30.78
59825;BME280;45703;50.898;6.054;2022-08-11T13:29:42;100510.28;;;31.48;30.79
59825;BME280;45703;50.898;6.054;2022-08-11T13:32:11;100514.03;;;31.56;30.85
59825;BME280;45703;50.898;6.054;2022-08-11T13:34:39;100495.44;;;31.53;31.11
59825;BME280;45703;50.898;6.054;2022-08-11T13:37:07;100505.97;;;31.63;30.14
59825;BME280;45703;50.898;6.054;2022-08-11T13:39:35;100511.69;;;31.70;30.36
59825;BME280;45703;50.898;6.054;2022-08-11T13:42:03;100512.59;;;31.74;28.48
59825;BME280;45703;50.898;6.054;2022-08-11T13:44:32;100516.69;;;31.80;30.95
59825;BME280;45703;50.898;6.054;2022-08-11T13:47:01;100509.72;;;31.86;30.96
59825;BME280;45703;50.898;6.054;2022-08-11T13:49:30;100508.41;;;31.95;31.06
59825;BME280;45703;50.898;6.054;2022-08-11T13:51:56;100505.91;;;32.06;30.70
59825;BME280;45703;50.898;6.054;2022-08-11T13:54:26;100493.78;;;32.10;30.47
59825;BME280;45703;50.898;6.054;2022-08-11T13:56:55;100497.13;;;32.16;30.58
59825;BME280;45703;50.898;6.054;2022-08-11T13:59:22;100498.09;;;32.23;31.06
59825;BME280;45703;50.898;6.054;2022-08-11T14:01:53;100498.28;;;32.30;30.24
59825;BME280;45703;50.898;6.054;2022-08-11T14:04:29;100486.94;;;32.35;30.57
59825;BME280;45703;50.898;6.054;2022-08-11T14:06:58;100475.50;;;32.37;30.57
59825;BME280;45703;50.898;6.054;2022-08-11T14:09:31;100485.22;;;32.46;30.38
59825;BME280;45703;50.898;6.054;2022-08-11T14:12:00;100479.63;;;32.43;30.15
59825;BME280;45703;50.898;6.054;2022-08-11T14:14:51;100483.53;;;32.42;29.68
59825;BME280;45703;50.898;6.054;2022-08-11T14:17:21;100479.88;;;32.38;29.30
59825;BME280;45703;50.898;6.054;2022-08-11T14:19:50;100478.53;;;32.32;29.12
59825;BME280;45703;50.898;6.054;2022-08-11T14:22:18;100470.97;;;32.29;29.55
59825;BME280;45703;50.898;6.054;2022-08-11T14:24:46;100473.00;;;32.32;29.58
59825;BME280;45703;50.898;6.054;2022-08-11T14:27:14;100467.75;;;32.42;30.00
59825;BME280;45703;50.898;6.054;2022-08-11T14:29:41;100467.25;;;32.56;30.02
59825;BME280;45703;50.898;6.054;2022-08-11T14:32:09;100470.63;;;32.65;29.81
59825;BME280;45703;50.898;6.054;2022-08-11T14:34:39;100464.41;;;32.68;29.20
59825;BME280;45703;50.898;6.054;2022-08-11T14:37:07;100458.88;;;32.68;29.13
59825;BME280;45703;50.898;6.054;2022-08-11T14:39:42;100463.09;;;32.65;29.07
59825;BME280;45703;50.898;6.054;2022-08-11T14:42:09;100461.16;;;32.66;29.28
59825;BME280;45703;50.898;6.054;2022-08-11T14:45:21;100453.78;;;32.70;29.33
59825;BME280;45703;50.898;6.054;2022-08-11T14:48:08;100447.16;;;32.74;29.24
59825;BME280;45703;50.898;6.054;2022-08-11T14:50:34;100440.53;;;32.79;29.62
59825;BME280;45703;50.898;6.054;2022-08-11T14:53:09;100437.25;;;32.92;29.72
59825;BME280;45703;50.898;6.054;2022-08-11T14:55:38;100446.56;;;33.03;28.69
59825;BME280;45703;50.898;6.054;2022-08-11T14:58:27;100446.25;;;33.08;28.95
59825;BME280;45703;50.898;6.054;2022-08-11T15:00:57;100443.59;;;33.11;29.22
59825;BME280;45703;50.898;6.054;2022-08-11T15:03:25;100438.59;;;33.17;28.70
59825;BME280;45703;50.898;6.054;2022-08-11T15:05:53;100439.50;;;33.24;28.84
59825;BME280;45703;50.898;6.054;2022-08-11T15:08:21;100432.06;;;33.28;29.05
59825;BME280;45703;50.898;6.054;2022-08-11T15:11:12;100432.63;;;33.37;28.72
59825;BME280;45703;50.898;6.054;2022-08-11T15:13:58;100435.81;;;33.39;28.71
59825;BME280;45703;50.898;6.054;2022-08-11T15:16:25;100437.44;;;33.40;28.47
59825;BME280;45703;50.898;6.054;2022-08-11T15:19:10;100422.81;;;33.40;28.68
59825;BME280;45703;50.898;6.054;2022-08-11T15:21:37;100419.66;;;33.41;28.89
59825;BME280;45703;50.898;6.054;2022-08-11T15:24:21;100417.81;;;33.49;28.37
59825;BME280;45703;50.898;6.054;2022-08-11T15:26:48;100410.38;;;33.53;28.53
59825;BME280;45703;50.898;6.054;2022-08-11T15:29:34;100413.22;;;33.56;27.89
59825;BME280;45703;50.898;6.054;2022-08-11T15:32:21;100397.44;;;33.60;28.71
59825;BME280;45703;50.898;6.054;2022-08-11T15:34:57;100400.78;;;33.69;28.33
59825;BME280;45703;50.898;6.054;2022-08-11T15:37:43;100408.16;;;33.84;28.25
59825;BME280;45703;50.898;6.054;2022-08-11T15:40:15;100403.53;;;33.92;28.62
59825;BME280;45703;50.898;6.054;2022-08-11T15:43:06;100403.41;;;34.11;28.40
59825;BME280;45703;50.898;6.054;2022-08-11T15:45:54;100397.59;;;34.16;27.38
59825;BME280;45703;50.898;6.054;2022-08-11T15:48:33;100396.47;;;34.20;27.88
59825;BME280;45703;50.898;6.054;2022-08-11T15:51:10;100386.63;;;34.23;27.48
59825;BME280;45703;50.898;6.054;2022-08-11T15:56:08;100381.59;;;34.32;27.49
59825;BME280;45703;50.898;6.054;2022-08-11T15:58:40;100388.00;;;34.39;27.81
59825;BME280;45703;50.898;6.054;2022-08-11T16:01:26;100375.88;;;34.47;27.72
59825;BME280;45703;50.898;6.054;2022-08-11T16:04:20;100377.97;;;34.57;28.01
59825;BME280;45703;50.898;6.054;2022-08-11T16:06:56;100370.19;;;34.66;27.58
59825;BME280;45703;50.898;6.054;2022-08-11T16:09:47;100363.06;;;34.68;26.66
59825;BME280;45703;50.898;6.054;2022-08-11T16:12:23;100369.91;;;34.74;27.09
59825;BME280;45703;50.898;6.054;2022-08-11T16:14:53;100372.31;;;34.79;27.46
59825;BME280;45703;50.898;6.054;2022-08-11T16:17:41;100362.50;;;34.89;27.72
59825;BME280;45703;50.898;6.054;2022-08-11T16:20:10;100366.22;;;35.00;26.10
59825;BME280;45703;50.898;6.054;2022-08-11T16:22:37;100358.38;;;35.09;26.95
59825;BME280;45703;50.898;6.054;2022-08-11T16:25:10;100357.66;;;35.15;26.86
59825;BME280;45703;50.898;6.054;2022-08-11T16:27:42;100356.53;;;35.20;26.94
59825;BME280;45703;50.898;6.054;2022-08-11T16:30:11;100357.00;;;35.25;26.85
59825;BME280;45703;50.898;6.054;2022-08-11T16:32:40;100356.25;;;35.32;26.85
59825;BME280;45703;50.898;6.054;2022-08-11T16:35:15;100360.25;;;35.38;26.64
59825;BME280;45703;50.898;6.054;2022-08-11T16:38:02;100361.06;;;35.38;25.96
59825;BME280;45703;50.898;6.054;2022-08-11T16:40:50;100357.88;;;35.36;25.99
59825;BME280;45703;50.898;6.054;2022-08-11T16:43:18;100357.94;;;35.43;26.07
59825;BME280;45703;50.898;6.054;2022-08-11T16:46:18;100358.00;;;35.50;26.24
59825;BME280;45703;50.898;6.054;2022-08-11T16:49:05;100352.47;;;35.54;26.38
59825;BME280;45703;50.898;6.054;2022-08-11T16:51:32;100351.66;;;35.50;25.81
59825;BME280;45703;50.898;6.054;2022-08-11T16:53:57;100348.84;;;35.46;25.92
59825;BME280;45703;50.898;6.054;2022-08-11T16:56:30;100344.00;;;35.40;26.34